Time;durP1;ratioP1;P1;durP2;ratioP2;P2;SDS_P1;SDS_P2;PMS_P1;PMS_P2;Temp;Humidity;BMP_temperature;BMP_pressure;BME280_temperature;BME280_humidity;BME280_pressure;Samples;Min_cycle;Max_cycle;Signal;HPM_P1;HPM_P2
2022/10/11 00:01:23;;;;;;;;;1.50;1.00;;;;;15.65;60.29;101609.84;4995509;28;45403;-82
2022/10/11 00:03:48;;;;;;;;;2.00;1.00;;;;;15.62;60.01;101618.00;4995231;28;45477;-82
2022/10/11 00:06:13;;;;;;;;;3.75;2.00;;;;;15.58;59.98;101619.19;4995321;28;45621;-80
2022/10/11 00:08:39;;;;;;;;;4.25;1.00;;;;;15.56;59.95;101615.81;4995164;28;45783;-81
2022/10/11 00:11:06;;;;;;;;;2.75;2.00;;;;;15.53;60.45;101622.19;4998524;28;45498;-80
2022/10/11 00:16:54;;;;;;;;;2.00;1.00;;;;;15.50;60.49;101622.38;4992990;28;45877;-81
2022/10/11 00:19:19;;;;;;;;;1.00;1.00;;;;;15.46;59.83;101622.72;4994993;28;45689;-79
2022/10/11 00:21:45;;;;;;;;;2.00;1.00;;;;;15.43;60.06;101637.03;4994776;28;45645;-78
2022/10/11 00:24:11;;;;;;;;;2.00;2.00;;;;;15.40;60.13;101626.66;4998977;28;45695;-78
2022/10/11 00:26:37;;;;;;;;;1.00;1.00;;;;;15.41;60.07;101633.63;4994926;28;46077;-79
2022/10/11 00:32:24;;;;;;;;;2.00;1.00;;;;;15.31;59.95;101632.66;4994640;28;45545;-79
2022/10/11 00:34:50;;;;;;;;;1.00;1.00;;;;;15.28;60.16;101630.22;4994703;28;46791;-78
2022/10/11 00:37:16;;;;;;;;;2.75;1.00;;;;;15.28;59.93;101648.69;4994625;28;46124;-78
2022/10/11 00:39:41;;;;;;;;;2.00;2.00;;;;;15.25;59.89;101637.53;4993330;28;45808;-79
2022/10/11 00:42:16;;;;;;;;;2.75;1.25;;;;;15.22;59.92;101640.41;4994988;28;45719;-78
2022/10/11 00:44:46;;;;;;;;;0.25;0.00;;;;;15.22;60.14;101648.34;4994284;28;45640;-78
2022/10/11 00:47:16;;;;;;;;;3.00;2.00;;;;;15.19;59.88;101648.53;4994196;28;46201;-80
2022/10/11 00:49:47;;;;;;;;;1.00;1.00;;;;;15.13;60.27;101636.63;4994868;28;45525;-81
2022/10/11 00:52:36;;;;;;;;;2.00;1.00;;;;;15.15;59.88;101650.56;4994476;28;45627;-80
2022/10/11 00:55:10;;;;;;;;;2.75;1.00;;;;;15.11;59.64;101643.84;4994398;28;45696;-81
2022/10/11 00:57:39;;;;;;;;;2.25;1.00;;;;;15.07;60.15;101643.22;4994505;28;46149;-81
2022/10/11 01:00:10;;;;;;;;;2.00;1.00;;;;;15.08;60.03;101646.69;4995810;28;45607;-82
2022/10/11 01:02:36;;;;;;;;;1.50;0.75;;;;;15.07;59.90;101652.91;4996515;28;46010;-81
2022/10/11 01:05:04;;;;;;;;;2.00;1.00;;;;;15.03;59.78;101638.28;4997490;28;46350;-81
2022/10/11 01:07:30;;;;;;;;;2.50;1.75;;;;;15.05;59.78;101650.41;4997698;28;46021;-81
2022/10/11 01:09:57;;;;;;;;;1.00;1.00;;;;;15.01;59.74;101643.66;4997636;28;45605;-81
2022/10/11 01:18:59;;;;;;;;;1.75;1.00;;;;;14.96;59.50;101648.44;4995341;28;46828;-80
2022/10/11 01:21:49;;;;;;;;;2.00;1.00;;;;;14.93;59.35;101643.38;4971431;28;45803;-81
2022/10/11 01:24:45;;;;;;;;;2.00;1.00;;;;;14.90;59.59;101640.94;4997444;28;45491;-80
2022/10/11 01:34:02;;;;;;;;;2.00;1.75;;;;;14.80;59.17;101639.09;4997027;28;45856;-79
2022/10/11 01:36:36;;;;;;;;;1.00;0.00;;;;;14.79;59.46;101643.53;4997191;28;45766;-79
2022/10/11 01:39:08;;;;;;;;;1.25;1.00;;;;;14.77;59.72;101644.59;4996628;28;45586;-79
2022/10/11 01:41:39;;;;;;;;;2.00;1.00;;;;;14.72;59.35;101642.31;4996982;28;45651;-81
2022/10/11 01:44:07;;;;;;;;;2.25;1.00;;;;;14.73;59.34;101641.34;4997004;28;45647;-81
2022/10/11 01:46:34;;;;;;;;;2.75;0.75;;;;;14.71;58.92;101645.88;4979101;28;45581;-80
2022/10/11 01:49:01;;;;;;;;;1.75;1.00;;;;;14.66;59.14;101635.66;4996733;28;45696;-80
2022/10/11 01:51:33;;;;;;;;;1.50;1.00;;;;;14.65;59.48;101649.81;4996799;28;46281;-80
2022/10/11 01:54:18;;;;;;;;;1.00;0.00;;;;;14.64;59.16;101645.47;4996704;28;45755;-80
2022/10/11 01:57:11;;;;;;;;;3.25;1.50;;;;;14.68;59.25;101646.13;4996920;28;45529;-80
2022/10/11 01:59:55;;;;;;;;;4.50;2.00;;;;;14.65;59.05;101647.16;4996701;28;45557;-79
2022/10/11 02:02:23;;;;;;;;;2.00;1.00;;;;;14.64;58.70;101650.75;4996443;28;46039;-79
2022/10/11 02:05:02;;;;;;;;;1.75;1.00;;;;;14.61;58.74;101647.50;4996177;28;45694;-81
2022/10/11 02:07:51;;;;;;;;;0.25;0.25;;;;;14.59;58.81;101644.97;4996935;28;45772;-81
2022/10/11 02:10:27;;;;;;;;;0.75;0.75;;;;;14.57;58.51;101643.41;4977936;28;46883;-82
2022/10/11 02:13:02;;;;;;;;;1.75;1.00;;;;;14.54;58.46;101633.91;4996731;28;45628;-80
2022/10/11 02:15:29;;;;;;;;;1.00;1.00;;;;;14.56;58.69;101641.72;4994671;28;45660;-81
2022/10/11 02:17:59;;;;;;;;;2.25;1.00;;;;;14.54;58.51;101641.81;4996449;28;45730;-80
2022/10/11 02:20:29;;;;;;;;;1.00;0.00;;;;;14.54;58.93;101640.97;4978652;28;47521;-80
2022/10/11 02:23:08;;;;;;;;;2.00;1.00;;;;;14.51;58.97;101635.94;4996421;28;46008;-81
2022/10/11 02:25:35;;;;;;;;;1.25;1.00;;;;;14.48;58.46;101634.34;4996197;28;45585;-80
2022/10/11 02:28:06;;;;;;;;;2.00;1.00;;;;;14.49;58.50;101638.66;4996281;28;45810;-81
2022/10/11 02:30:33;;;;;;;;;2.00;1.00;;;;;14.50;58.55;101642.13;4996107;28;46839;-80
2022/10/11 02:33:05;;;;;;;;;0.50;0.00;;;;;14.49;58.66;101635.19;4996361;28;45657;-79
2022/10/11 02:35:36;;;;;;;;;1.00;1.00;;;;;14.47;58.34;101639.72;4996195;28;45522;-80
2022/10/11 02:38:08;;;;;;;;;2.00;1.50;;;;;14.44;58.27;101632.88;4996258;28;45689;-79
2022/10/11 02:40:41;;;;;;;;;1.00;1.00;;;;;14.42;58.46;101645.31;4996165;28;45729;-80
2022/10/11 02:43:12;;;;;;;;;1.00;1.00;;;;;14.38;58.77;101643.84;4996450;28;46592;-79
2022/10/11 02:45:42;;;;;;;;;1.75;1.00;;;;;14.36;58.80;101642.25;4995624;28;45539;-78
2022/10/11 02:48:10;;;;;;;;;2.25;1.00;;;;;14.35;58.42;101641.41;4996476;28;45736;-80
2022/10/11 02:50:38;;;;;;;;;1.50;1.00;;;;;14.35;58.36;101643.19;4996634;28;45603;-79
2022/10/11 02:53:04;;;;;;;;;2.00;1.00;;;;;14.33;58.80;101645.94;4995995;28;46364;-81
2022/10/11 02:55:30;;;;;;;;;2.00;1.00;;;;;14.34;58.56;101646.78;4996149;28;45442;-80
2022/10/11 02:57:55;;;;;;;;;1.50;1.00;;;;;14.34;58.28;101646.78;4978144;28;45607;-79
2022/10/11 03:00:21;;;;;;;;;1.00;1.00;;;;;14.34;58.82;101646.78;4977486;28;47466;-79
2022/10/11 03:02:46;;;;;;;;;6.00;2.00;;;;;14.32;58.60;101638.97;4996034;28;45667;-78
2022/10/11 03:05:12;;;;;;;;;1.25;1.25;;;;;14.30;58.16;101643.53;4995885;28;45787;-79
2022/10/11 03:07:37;;;;;;;;;1.00;1.00;;;;;14.28;58.63;101646.25;4977902;28;45657;-80
2022/10/11 03:10:03;;;;;;;;;2.00;1.00;;;;;14.29;58.30;101644.47;4995705;28;45616;-80
2022/10/11 03:12:29;;;;;;;;;2.00;1.00;;;;;14.27;58.49;101646.34;4995881;28;45725;-81
2022/10/11 03:14:54;;;;;;;;;1.25;1.00;;;;;14.26;58.02;101647.31;4995738;28;45604;-79
2022/10/11 03:17:20;;;;;;;;;1.00;0.50;;;;;14.27;58.55;101649.84;4995582;28;45735;-82
2022/10/11 03:19:46;;;;;;;;;0.00;0.00;;;;;14.21;58.61;101649.41;4995471;28;45751;-81
2022/10/11 03:22:11;;;;;;;;;1.00;0.75;;;;;14.20;58.16;101653.84;4994345;28;46070;-79
2022/10/11 03:24:37;;;;;;;;;3.00;1.00;;;;;14.19;58.09;101657.44;4995724;28;45625;-79
2022/10/11 03:27:02;;;;;;;;;2.00;1.00;;;;;14.14;58.34;101648.19;4995798;28;45522;-79
2022/10/11 03:29:27;;;;;;;;;3.00;1.00;;;;;14.13;58.60;101649.97;4995201;28;45849;-79
2022/10/11 03:31:53;;;;;;;;;2.50;1.00;;;;;14.14;58.47;101656.91;4995497;28;45600;-80
2022/10/11 03:34:19;;;;;;;;;1.00;0.25;;;;;14.13;58.13;101657.03;4995369;28;45848;-79
2022/10/11 03:36:45;;;;;;;;;1.25;0.25;;;;;14.08;58.55;101652.06;4995461;28;45577;-79
2022/10/11 03:39:10;;;;;;;;;0.00;0.00;;;;;14.08;58.15;101649.44;4995040;28;46203;-80
2022/10/11 03:41:36;;;;;;;;;1.25;0.00;;;;;14.06;58.22;101661.03;4995491;28;45617;-79
2022/10/11 03:44:03;;;;;;;;;3.00;1.00;;;;;14.07;58.44;101660.94;4995460;28;45615;-80
2022/10/11 03:49:50;;;;;;;;;2.00;1.00;;;;;14.06;58.15;101666.28;4995088;28;45585;-80
2022/10/11 03:52:15;;;;;;;;;1.25;1.00;;;;;14.05;58.66;101665.44;5001205;28;45513;-80
2022/10/11 03:54:41;;;;;;;;;1.75;0.50;;;;;14.05;58.53;101669.88;5002698;28;45389;-79
2022/10/11 03:57:06;;;;;;;;;1.50;0.25;;;;;14.00;58.14;101657.00;4983112;28;45684;-82
2022/10/11 03:59:31;;;;;;;;;2.00;1.00;;;;;14.02;58.14;101665.66;4980178;28;46681;-82
2022/10/11 04:05:18;;;;;;;;;0.00;0.00;;;;;14.00;58.36;101664.06;4995172;28;45625;-81
2022/10/11 04:07:44;;;;;;;;;1.50;1.00;;;;;13.97;58.06;101667.78;4995510;28;45549;-80
2022/10/11 04:10:09;;;;;;;;;2.00;1.00;;;;;13.98;57.89;101666.00;4994969;28;45810;-79
2022/10/11 04:12:37;;;;;;;;;0.00;0.00;;;;;13.97;58.29;101667.78;4994848;28;45960;-79
2022/10/11 04:15:03;;;;;;;;;1.75;1.00;;;;;13.93;58.39;101663.66;4994832;28;45640;-80
2022/10/11 04:17:28;;;;;;;;;3.25;1.00;;;;;13.92;58.07;101658.50;4994626;28;45638;-79
2022/10/11 04:19:54;;;;;;;;;1.75;1.00;;;;;13.90;58.16;101669.13;4994682;28;45630;-79
2022/10/11 04:22:19;;;;;;;;;1.50;1.00;;;;;13.91;57.86;101685.78;4994821;28;45776;-79
2022/10/11 04:24:45;;;;;;;;;0.00;0.00;;;;;13.89;58.27;101677.97;4976982;28;45545;-79
2022/10/11 04:27:10;;;;;;;;;4.00;0.00;;;;;13.87;58.03;101675.44;4995310;28;45617;-79
2022/10/11 04:29:35;;;;;;;;;2.75;1.00;;;;;13.86;58.22;101680.84;4976437;28;48060;-80
2022/10/11 04:35:23;;;;;;;;;2.00;1.00;;;;;13.80;57.72;101694.41;4994226;28;45671;-80
2022/10/11 04:37:48;;;;;;;;;2.00;1.00;;;;;13.79;58.27;101692.72;4994375;28;45585;-80
2022/10/11 04:40:13;;;;;;;;;0.00;0.00;;;;;13.78;57.80;101693.66;4994756;28;46787;-81
2022/10/11 04:42:59;;;;;;;;;;;;;;;;;;;;;
2022/10/11 04:45:25;;;;;;;;;2.00;0.00;;;;;13.72;58.10;101687.00;4990185;28;73883;-78
2022/10/11 04:47:51;;;;;;;;;2.00;0.00;;;;;13.69;57.88;101684.59;4996188;28;45654;-81
2022/10/11 04:50:17;;;;;;;;;2.00;1.00;;;;;13.69;57.69;101684.59;4996312;28;45557;-82
2022/10/11 04:52:42;;;;;;;;;0.25;0.00;;;;;13.67;58.02;101681.22;4994233;28;46168;-81
2022/10/11 04:55:09;;;;;;;;;1.00;1.00;;;;;13.66;57.92;101689.22;4992819;28;45620;-80
2022/10/11 04:57:34;;;;;;;;;1.00;1.00;;;;;13.64;58.00;101685.84;4994490;28;45701;-81
2022/10/11 04:59:59;;;;;;;;;0.75;0.00;;;;;13.64;58.12;101699.88;4994250;28;45541;-81
2022/10/11 05:05:46;;;;;;;;;2.00;1.00;;;;;13.61;57.95;101696.56;4994035;28;45656;-79
2022/10/11 05:08:12;;;;;;;;;1.50;1.00;;;;;13.59;58.08;101701.13;4994355;28;45726;-81
2022/10/11 05:10:37;;;;;;;;;2.25;1.00;;;;;13.54;57.94;101685.63;4994297;28;46432;-83
2022/10/11 05:13:04;;;;;;;;;1.50;0.50;;;;;13.56;57.79;101693.41;4994015;28;45750;-80
2022/10/11 05:19:58;;;;;;;;;2.50;0.75;;;;;13.51;57.94;101696.34;4996797;28;45746;-79
2022/10/11 05:22:24;;;;;;;;;0.00;0.00;;;;;13.45;58.06;101683.56;5007765;28;45575;-82
2022/10/11 05:24:49;;;;;;;;;2.00;1.50;;;;;13.43;58.53;101690.75;5011718;28;45533;-82
2022/10/11 05:27:14;;;;;;;;;2.00;1.00;;;;;13.42;58.26;101694.31;5007938;28;45148;-83
2022/10/11 05:29:40;;;;;;;;;1.00;0.50;;;;;13.38;58.56;101691.06;5004152;28;45552;-83
2022/10/11 05:35:27;;;;;;;;;4.50;2.00;;;;;13.38;58.36;101700.75;4996082;28;46209;-82
2022/10/11 05:37:52;;;;;;;;;2.25;1.75;;;;;13.34;58.36;101692.19;4994499;28;45565;-80
2022/10/11 05:40:18;;;;;;;;;2.00;1.00;;;;;13.34;58.35;101705.34;4994397;28;45668;-78
2022/10/11 05:42:43;;;;;;;;;1.50;1.50;;;;;13.33;58.38;101705.47;4995502;28;46118;-82
2022/10/11 05:45:08;;;;;;;;;1.75;1.75;;;;;13.31;58.71;101696.81;4997161;28;46405;-78
2022/10/11 05:51:01;;;;;;;;;2.00;1.00;;;;;13.32;58.62;101693.25;5001381;28;45658;-78
2022/10/11 05:53:27;;;;;;;;;2.00;1.00;;;;;13.31;58.43;101700.28;5000688;28;45769;-76
2022/10/11 05:55:52;;;;;;;;;1.00;1.00;;;;;13.31;58.47;101704.72;4997556;28;45722;-81
2022/10/11 05:58:18;;;;;;;;;2.75;2.00;;;;;13.31;58.29;101705.56;4999492;28;45573;-75
2022/10/11 06:00:43;;;;;;;;;2.00;1.00;;;;;13.32;58.36;101707.25;5000988;28;45548;-79
2022/10/11 06:06:31;;;;;;;;;2.25;2.00;;;;;13.33;58.60;101700.19;4999024;28;46156;-77
2022/10/11 06:08:56;;;;;;;;;2.50;2.00;;;;;13.34;58.66;101707.13;4999859;28;45749;-79
2022/10/11 06:11:25;;;;;;;;;1.25;1.00;;;;;13.34;58.34;101709.75;5000667;28;46040;-79
2022/10/11 06:13:56;;;;;;;;;1.75;1.00;;;;;13.32;58.31;101706.41;4999500;28;45634;-74
2022/10/11 06:16:22;;;;;;;;;2.75;1.25;;;;;13.32;58.28;101709.88;4998718;28;45761;-73
2022/10/11 06:18:48;;;;;;;;;4.00;3.00;;;;;13.31;58.12;101720.50;4997635;28;45458;-73
2022/10/11 06:21:14;;;;;;;;;1.00;0.75;;;;;13.29;58.47;101714.47;4998639;28;45577;-73
2022/10/11 06:23:39;;;;;;;;;2.00;1.00;;;;;13.26;58.07;101723.44;5000648;28;46441;-82
2022/10/11 06:26:07;;;;;;;;;2.00;1.00;;;;;13.26;57.96;101718.16;4999438;28;46046;-79
2022/10/11 06:28:35;;;;;;;;;1.00;1.00;;;;;13.25;58.00;101737.53;4997286;28;45744;-82
2022/10/11 06:31:02;;;;;;;;;1.00;1.00;;;;;13.22;58.23;101729.00;4997879;28;45600;-81
2022/10/11 06:36:49;;;;;;;;;2.00;2.00;;;;;13.21;58.14;101730.78;4998749;28;45769;-82
2022/10/11 06:39:15;;;;;;;;;1.25;1.25;;;;;13.18;58.16;101730.97;4998373;28;45667;-78
2022/10/11 06:41:40;;;;;;;;;2.00;2.00;;;;;13.17;57.96;101729.25;4997980;28;45955;-83
2022/10/11 06:44:06;;;;;;;;;3.25;1.75;;;;;13.17;58.36;101734.53;4997684;28;45777;-79
2022/10/11 06:46:32;;;;;;;;;1.00;0.50;;;;;13.15;58.12;101728.53;4998916;28;45663;-77
2022/10/11 06:52:19;;;;;;;;;1.25;1.00;;;;;13.12;58.25;101720.00;4997461;28;45709;-80
2022/10/11 06:54:44;;;;;;;;;3.00;2.75;;;;;13.11;58.46;101732.28;4980032;28;47354;-80
2022/10/11 06:57:10;;;;;;;;;1.75;0.00;;;;;13.09;58.33;101739.41;4999233;28;46264;-83
2022/10/11 06:59:35;;;;;;;;;1.50;1.00;;;;;13.09;58.63;101742.03;5001337;28;46047;-79
2022/10/11 07:02:01;;;;;;;;;2.00;1.00;;;;;13.08;58.60;101737.72;4981288;28;45615;-84
2022/10/11 07:04:26;;;;;;;;;2.50;1.50;;;;;13.06;58.47;101737.00;5002983;28;45612;-84
2022/10/11 07:06:52;;;;;;;;;2.00;2.00;;;;;13.09;58.29;101741.19;5003543;28;45623;-85
2022/10/11 07:09:17;;;;;;;;;0.25;0.00;;;;;13.11;58.59;101744.59;5003244;28;45495;-79
2022/10/11 07:11:43;;;;;;;;;4.00;3.00;;;;;13.11;58.70;101739.31;5002573;28;45482;-78
2022/10/11 07:14:08;;;;;;;;;2.25;2.00;;;;;13.13;58.60;101748.81;5000064;28;45436;-91
2022/10/11 07:16:35;;;;;;;;;3.75;3.00;;;;;13.14;58.20;101750.53;4999042;28;45592;-79
2022/10/11 07:22:22;;;;;;;;;2.00;2.00;;;;;13.18;57.91;101756.44;4998528;28;46068;-77
2022/10/11 07:24:48;;;;;;;;;3.50;2.00;;;;;13.18;58.46;101756.44;4997687;28;47684;-82
2022/10/11 07:27:13;;;;;;;;;2.00;1.50;;;;;13.17;58.00;101755.56;5000541;28;45524;-79
2022/10/11 07:29:39;;;;;;;;;4.50;2.00;;;;;13.19;58.28;101758.97;5004692;28;45521;-86
2022/10/11 07:32:04;;;;;;;;;2.00;1.50;;;;;13.20;57.99;101759.81;5009168;28;45515;-85
2022/10/11 07:34:30;;;;;;;;;2.00;1.00;;;;;13.21;57.78;101761.50;5006686;28;45478;-82
2022/10/11 07:36:55;;;;;;;;;2.00;2.00;;;;;13.19;58.18;101758.13;5006370;28;45615;-87
2022/10/11 07:39:21;;;;;;;;;1.00;1.00;;;;;13.24;57.64;101769.19;4999575;28;45747;-83
2022/10/11 07:41:46;;;;;;;;;2.50;2.00;;;;;13.26;57.69;101770.81;4970273;28;45604;-80
2022/10/11 07:44:12;;;;;;;;;7.25;3.00;;;;;13.28;57.83;101770.72;5001200;28;45500;-83
2022/10/11 07:46:38;;;;;;;;;2.00;1.75;;;;;13.29;57.48;101775.84;4999034;28;45661;-77
2022/10/11 07:52:27;;;;;;;;;2.00;2.00;;;;;13.30;57.39;101785.44;4999215;28;45528;-77
2022/10/11 07:55:13;;;;;;;;;3.75;2.75;;;;;13.29;57.42;101778.50;4982574;28;46772;-80
2022/10/11 07:57:39;;;;;;;;;3.50;1.75;;;;;13.29;57.04;101778.50;4997569;28;45556;-77
2022/10/11 08:00:05;;;;;;;;;3.00;3.00;;;;;13.25;57.01;101782.28;4998315;28;45531;-77
2022/10/11 08:02:30;;;;;;;;;3.00;2.00;;;;;13.30;56.76;101795.97;4997507;28;45801;-74
2022/10/11 08:04:56;;;;;;;;;3.75;2.75;;;;;13.27;56.74;101790.91;4996407;28;45682;-74
2022/10/11 08:07:21;;;;;;;;;2.25;2.00;;;;;13.31;56.88;101794.19;4995788;28;45680;-76
2022/10/11 08:09:47;;;;;;;;;2.00;2.00;;;;;13.30;57.07;101785.44;4995201;28;45722;-73
2022/10/11 08:12:12;;;;;;;;;2.25;1.50;;;;;13.32;56.85;101793.25;4996015;28;45474;-76
2022/10/11 08:14:40;;;;;;;;;2.25;2.25;;;;;13.31;56.88;101787.16;4995862;28;46349;-82
2022/10/11 08:17:05;;;;;;;;;4.75;2.75;;;;;13.33;56.94;101793.13;5001043;28;46700;-77
2022/10/11 08:22:52;;;;;;;;;2.50;2.00;;;;;13.34;56.61;101793.97;5000592;28;45437;-81
2022/10/11 08:25:18;;;;;;;;;3.50;2.75;;;;;13.35;56.33;101801.78;4999620;28;45580;-82
2022/10/11 08:27:43;;;;;;;;;2.25;2.00;;;;;13.35;57.08;101806.22;5003188;28;45588;-84
2022/10/11 08:30:10;;;;;;;;;2.00;2.00;;;;;13.37;56.52;101804.34;5000547;28;45521;-82
2022/10/11 08:32:35;;;;;;;;;5.00;2.00;;;;;13.36;56.74;101802.66;5001638;28;45508;-82
2022/10/11 08:35:01;;;;;;;;;1.50;1.00;;;;;13.36;56.82;101806.13;5000615;28;45498;-83
2022/10/11 08:37:27;;;;;;;;;3.75;3.00;;;;;13.36;56.64;101810.53;4997379;28;45793;-82
2022/10/11 08:39:52;;;;;;;;;3.00;3.00;;;;;13.33;57.16;101805.47;4977553;28;45674;-75
2022/10/11 08:42:31;;;;;;;;;3.50;3.50;;;;;13.39;57.10;101810.34;4995592;28;45555;-79
2022/10/11 08:45:02;;;;;;;;;4.00;3.00;;;;;13.39;56.84;101811.19;4977841;28;48151;-75
2022/10/11 08:54:06;;;;;;;;;3.50;3.00;;;;;13.44;56.63;101811.72;4997347;28;45544;-80
2022/10/11 08:56:35;;;;;;;;;3.50;2.00;;;;;13.42;56.58;101816.25;4996297;28;45654;-81
2022/10/11 08:59:04;;;;;;;;;4.75;3.00;;;;;13.45;56.20;101826.59;4996711;28;46120;-86
2022/10/11 09:01:30;;;;;;;;;2.50;2.25;;;;;13.45;56.30;101818.69;4979541;28;45704;-86
2022/10/11 09:03:58;;;;;;;;;4.50;3.00;;;;;13.48;56.54;101819.44;4997315;28;45614;-74
2022/10/11 09:06:45;;;;;;;;;3.00;2.00;;;;;13.50;56.44;101826.28;4997642;28;46317;-81
2022/10/11 09:09:49;;;;;;;;;2.75;2.50;;;;;13.52;56.47;101813.88;4997188;28;45644;-82
2022/10/11 09:12:14;;;;;;;;;3.00;2.00;;;;;13.53;56.47;101815.59;4996201;28;45645;-82
2022/10/11 09:14:59;;;;;;;;;3.00;3.00;;;;;13.57;56.50;101818.84;4997171;28;45587;-88
2022/10/11 09:20:58;;;;;;;;;5.50;3.25;;;;;13.62;56.16;101816.75;4999446;28;45537;-83
2022/10/11 09:23:42;;;;;;;;;3.25;2.75;;;;;13.62;56.17;101817.63;5001201;28;45651;-84
2022/10/11 09:26:22;;;;;;;;;2.00;1.75;;;;;13.66;56.31;101818.25;4999264;28;45584;-85
2022/10/11 09:29:13;;;;;;;;;2.75;2.75;;;;;13.69;56.16;101815.44;4999316;28;45662;-85
2022/10/11 09:31:40;;;;;;;;;3.00;3.00;;;;;13.73;56.37;101812.50;4999829;28;46594;-86
2022/10/11 09:37:56;;;;;;;;;4.50;3.00;;;;;13.81;55.84;101815.50;5000160;28;45635;-85
2022/10/11 09:40:57;;;;;;;;;1.50;1.50;;;;;13.85;55.81;101811.72;5004524;28;45651;-84
2022/10/11 09:43:23;;;;;;;;;3.00;2.75;;;;;13.87;56.23;101807.16;5013333;28;45620;-90
2022/10/11 09:45:49;;;;;;;;;4.50;3.50;;;;;13.91;55.96;101810.47;5013435;28;45489;-89
2022/10/11 09:48:21;;;;;;;;;3.75;2.75;;;;;13.92;56.21;101803.41;5008868;28;45533;-92
2022/10/11 09:50:48;;;;;;;;;5.75;3.00;;;;;13.98;56.04;101801.19;5004300;28;46583;-91
2022/10/11 09:53:14;;;;;;;;;5.50;2.25;;;;;13.99;56.30;101796.75;5003276;28;45468;-90
2022/10/11 09:55:44;;;;;;;;;2.75;2.75;;;;;14.05;56.06;101799.84;5001299;28;45494;-90
2022/10/11 09:58:31;;;;;;;;;2.00;2.00;;;;;14.08;56.42;101797.03;5002129;28;45651;-90
2022/10/11 10:01:10;;;;;;;;;5.00;3.00;;;;;14.12;56.25;101790.59;5000498;28;46849;-76
2022/10/11 10:03:41;;;;;;;;;4.25;2.75;;;;;14.14;56.38;101793.94;5008151;28;45493;-86
2022/10/11 10:06:27;;;;;;;;;4.50;3.00;;;;;14.18;56.32;101794.59;5001881;28;45630;-84
2022/10/11 10:08:54;;;;;;;;;4.50;3.00;;;;;14.22;56.50;101802.19;5004594;28;45442;-79
2022/10/11 10:11:19;;;;;;;;;6.50;3.00;;;;;14.23;56.60;101796.00;5002301;28;45571;-79
2022/10/11 10:13:55;;;;;;;;;3.25;3.25;;;;;14.27;56.68;101796.63;4984117;28;48110;-78
2022/10/11 10:16:27;;;;;;;;;2.25;2.25;;;;;14.29;56.73;101795.56;5001669;28;45701;-87
2022/10/11 10:18:59;;;;;;;;;2.50;2.25;;;;;14.32;56.85;101794.50;5003170;28;45605;-79
2022/10/11 10:21:31;;;;;;;;;4.25;3.75;;;;;14.35;56.33;101796.09;5002468;28;45727;-83
2022/10/11 10:24:01;;;;;;;;;4.00;3.75;;;;;14.40;56.57;101794.88;5000029;28;46559;-85
2022/10/11 10:26:27;;;;;;;;;4.00;4.00;;;;;14.44;56.42;101798.16;5002043;28;45556;-81
2022/10/11 10:29:08;;;;;;;;;3.25;2.50;;;;;14.47;56.71;101795.28;5001001;28;45511;-78
2022/10/11 10:31:36;;;;;;;;;5.75;4.50;;;;;14.52;56.41;101793.22;4997753;28;45544;-83
2022/10/11 10:34:10;;;;;;;;;6.75;3.75;;;;;14.56;56.35;101792.03;4998291;28;46052;-81
2022/10/11 10:36:42;;;;;;;;;4.25;4.00;;;;;14.60;56.46;101794.34;4997941;28;45583;-85
2022/10/11 10:39:18;;;;;;;;;3.50;2.25;;;;;14.64;56.34;101787.91;4997877;28;45751;-80
2022/10/11 10:41:43;;;;;;;;;6.00;4.00;;;;;14.70;56.32;101790.13;5003039;28;46587;-76
2022/10/11 10:44:10;;;;;;;;;6.75;5.75;;;;;14.75;56.52;101789.81;5003873;28;46071;-75
2022/10/11 10:46:53;;;;;;;;;4.50;4.00;;;;;14.81;56.25;101796.44;5005104;28;45569;-78
2022/10/11 10:49:33;;;;;;;;;1.00;1.00;;;;;14.84;55.98;101791.81;5004284;28;45577;-78
2022/10/11 10:52:26;;;;;;;;;6.00;4.50;;;;;14.91;56.35;101787.78;5003264;28;46345;-76
2022/10/11 10:55:16;;;;;;;;;4.00;4.00;;;;;14.97;55.79;101795.25;5007834;28;46469;-75
2022/10/11 10:58:08;;;;;;;;;4.00;3.75;;;;;15.01;55.71;101785.31;5004891;28;45674;-82
2022/10/11 11:00:46;;;;;;;;;4.00;4.00;;;;;15.06;55.93;101786.69;5005652;28;45611;-86
2022/10/11 11:06:32;;;;;;;;;5.00;5.00;;;;;15.15;55.65;101795.78;5003782;28;45466;-81
2022/10/11 11:09:42;;;;;;;;;5.75;5.00;;;;;15.20;55.62;101792.78;4982254;28;45881;-84
2022/10/11 11:12:20;;;;;;;;;5.00;4.50;;;;;15.24;55.37;101783.69;4921692;28;45599;-82
2022/10/11 11:15:26;;;;;;;;;3.50;3.00;;;;;15.28;55.35;101785.16;4925449;28;45631;-81
2022/10/11 11:18:19;;;;;;;;;4.75;4.00;;;;;15.34;55.43;101784.72;4987013;28;45551;-83
2022/10/11 11:24:23;;;;;;;;;4.50;4.25;;;;;15.44;55.31;101783.94;4995126;28;45679;-80
2022/10/11 11:27:18;;;;;;;;;6.25;5.75;;;;;15.46;55.13;101778.56;4978171;28;46381;-78
2022/10/11 11:30:05;;;;;;;;;5.75;5.25;;;;;15.50;55.05;101786.13;4897954;29;46189;-79
2022/10/11 11:33:11;;;;;;;;;6.75;4.75;;;;;15.52;54.83;101772.84;4898179;29;45573;-81
2022/10/11 11:39:02;;;;;;;;;5.00;4.00;;;;;15.59;54.85;101763.53;4824203;29;45667;-79
2022/10/11 11:41:35;;;;;;;;;4.00;3.50;;;;;15.63;54.64;101764.16;4823511;29;45616;-80
2022/10/11 11:44:00;;;;;;;;;4.50;4.50;;;;;15.67;54.62;101762.97;4822548;29;45614;-76
2022/10/11 11:46:35;;;;;;;;;4.75;3.75;;;;;15.73;54.77;101760.72;4823274;29;45591;-75
2022/10/11 11:49:12;;;;;;;;;5.00;3.75;;;;;15.77;54.40;101756.88;4823001;29;46552;-80
2022/10/11 11:51:43;;;;;;;;;5.50;4.50;;;;;15.82;54.59;101757.38;4825411;29;46091;-81
2022/10/11 11:54:14;;;;;;;;;5.00;3.00;;;;;15.85;54.43;101754.53;4831432;29;45588;-84
2022/10/11 11:56:59;;;;;;;;;3.25;3.00;;;;;15.91;54.54;101742.66;4832578;29;45621;-85
2022/10/11 11:59:36;;;;;;;;;4.00;2.75;;;;;15.95;54.22;101746.72;4829589;29;45803;-86
2022/10/11 12:02:13;;;;;;;;;4.00;2.50;;;;;15.99;54.14;101734.97;4826644;29;46126;-85
2022/10/11 12:04:42;;;;;;;;;4.00;2.75;;;;;16.03;53.90;101735.59;4825472;29;45774;-83
2022/10/11 12:07:12;;;;;;;;;7.25;3.50;;;;;16.08;53.74;101744.00;4882455;28;45808;-81
2022/10/11 12:09:40;;;;;;;;;3.00;3.00;;;;;16.10;54.12;101736.78;4918259;28;45608;-78
2022/10/11 12:12:23;;;;;;;;;7.00;3.50;;;;;16.15;53.35;101734.63;4990925;28;45482;-85
2022/10/11 12:14:51;;;;;;;;;5.00;3.25;;;;;16.19;53.56;101728.19;5002213;28;45706;-84
2022/10/11 12:17:19;;;;;;;;;5.00;3.00;;;;;16.22;53.34;101730.56;4999944;28;45665;-85
2022/10/11 12:19:58;;;;;;;;;3.00;3.00;;;;;16.24;53.43;101721.56;5001921;28;46410;-79
2022/10/11 12:22:27;;;;;;;;;4.00;3.00;;;;;16.30;53.17;101718.44;4998990;28;46210;-81
2022/10/11 12:25:19;;;;;;;;;4.00;3.00;;;;;16.33;53.14;101722.66;4997973;28;45632;-80
2022/10/11 12:27:53;;;;;;;;;5.50;3.00;;;;;16.38;53.33;101720.50;4997427;28;45429;-82
2022/10/11 12:30:46;;;;;;;;;4.00;3.00;;;;;16.43;53.11;101713.03;4997335;28;45622;-85
2022/10/11 12:33:14;;;;;;;;;3.00;3.00;;;;;16.47;53.03;101708.34;4997658;28;46424;-82
2022/10/11 12:35:51;;;;;;;;;3.00;3.00;;;;;16.51;53.15;101704.53;4996605;28;45768;-85
2022/10/11 12:38:37;;;;;;;;;4.00;3.00;;;;;16.58;53.15;101716.28;4996240;28;45525;-81
2022/10/11 12:41:08;;;;;;;;;3.25;2.00;;;;;16.61;52.71;101709.00;4996390;28;45533;-79
2022/10/11 12:43:49;;;;;;;;;5.00;3.00;;;;;16.64;52.78;101705.25;4999463;28;46584;-86
2022/10/11 12:46:27;;;;;;;;;4.75;3.00;;;;;16.67;52.60;101697.94;4998945;28;45727;-78
2022/10/11 12:52:17;;;;;;;;;3.25;3.00;;;;;16.79;52.51;101701.38;4997132;28;45674;-79
2022/10/11 12:55:18;;;;;;;;;4.50;3.00;;;;;16.84;52.17;101691.31;4999551;28;46071;-74
2022/10/11 12:58:06;;;;;;;;;3.00;3.00;;;;;16.88;52.06;101690.09;5002375;28;45865;-78
2022/10/11 13:00:40;;;;;;;;;3.75;3.50;;;;;16.91;52.40;101686.34;4984226;28;45592;-77
2022/10/11 13:03:27;;;;;;;;;5.25;4.25;;;;;16.97;52.44;101691.97;5002516;28;45767;-82
2022/10/11 13:09:26;;;;;;;;;3.75;3.75;;;;;17.07;51.79;101686.78;5002382;28;45581;-81
2022/10/11 13:12:05;;;;;;;;;2.25;2.25;;;;;17.12;52.10;101693.38;5002235;28;45581;-80
2022/10/11 13:14:37;;;;;;;;;2.00;1.00;;;;;17.17;52.14;101685.06;5000932;28;45445;-78
2022/10/11 13:17:02;;;;;;;;;4.50;4.00;;;;;17.21;52.18;101681.22;5001086;28;46191;-81
2022/10/11 13:19:30;;;;;;;;;6.00;5.00;;;;;17.25;52.32;101682.63;5000773;28;45675;-78